Terminal Aerodrome Forecast
Issued by NWS

Home | Current Version | Previous Version | Text Only | Print | Product List | Glossary On
Versions: 1 2 3 4 5 6 7 8 9 10 11 12 13 14 15 16 17 18 19 20 21 22 23 24 25 26 27 28 29
742
FTUS41 KPHI 221031 AAD
TAFMIV
TAF AMD
KMIV 221031Z 2211/2306 11006KT 5SM -RA BR SCT008 OVC050
      TEMPO 2211/2212 5SM -RA OVC004
     FM221200 05005KT 1SM BR OVC004
     FM221600 05010KT 2SM BR OVC005
     FM222300 05015KT 1SM -RA BR OVC002
     FM230300 06015G25KT 2SM BR OVC003=

USA.gov is the U.S. government's official web portal to all federal, state and local government web resources and services.